createdAt,value
2024-01-08T00:00:59.923Z,96179.86
2024-01-08T00:03:30.083Z,96179.58
2024-01-08T00:06:00.581Z,96190.72
2024-01-08T00:08:29.195Z,96186.03
2024-01-08T00:10:57.224Z,96189.47
2024-01-08T00:13:25.555Z,96191.86
2024-01-08T00:15:53.644Z,96189.20
2024-01-08T00:18:22.527Z,96188.69
2024-01-08T00:20:50.629Z,96195.84
2024-01-08T00:23:18.615Z,96193.50
2024-01-08T00:25:46.851Z,96196.94
2024-01-08T00:28:14.764Z,96198.99
2024-01-08T00:30:42.856Z,96204.07
2024-01-08T00:33:12.072Z,96216.56
2024-01-08T00:35:40.350Z,96210.94
2024-01-08T00:38:08.420Z,96216.48
2024-01-08T00:40:36.394Z,96215.16
2024-01-08T00:43:04.345Z,96214.14
2024-01-08T00:45:33.147Z,96217.03
2024-01-08T00:48:04.374Z,96213.05
2024-01-08T00:50:32.507Z,96221.01
2024-01-08T00:53:00.506Z,96216.74
2024-01-08T00:55:29.274Z,96220.78
2024-01-08T00:57:58.906Z,96219.91
2024-01-08T01:00:26.749Z,96223.90
2024-01-08T01:02:56.520Z,96221.55
2024-01-08T01:05:25.120Z,96225.30
2024-01-08T01:07:53.572Z,96232.77
2024-01-08T01:10:23.107Z,96233.19
2024-01-08T01:12:51.315Z,96227.95
2024-01-08T01:15:19.282Z,96231.94
2024-01-08T01:17:47.329Z,96224.98
2024-01-08T01:20:15.615Z,96233.55
2024-01-08T01:22:43.469Z,96234.09
2024-01-08T01:25:12.081Z,96234.64
2024-01-08T01:27:40.791Z,96239.41
2024-01-08T01:30:10.329Z,96237.84
2024-01-08T01:32:38.435Z,96238.08
2024-01-08T01:35:07.438Z,96246.05
2024-01-08T01:37:35.540Z,96248.15
2024-01-08T01:40:04.216Z,96243.11
2024-01-08T01:42:32.297Z,96243.57
2024-01-08T01:45:00.182Z,96242.02
2024-01-08T01:47:29.071Z,96244.17
2024-01-08T01:49:57.393Z,96248.70
2024-01-08T01:52:27.337Z,96248.93
2024-01-08T01:54:57.540Z,96257.44
2024-01-08T01:57:26.742Z,96246.54
2024-01-08T01:59:55.415Z,96248.41
2024-01-08T02:02:25.691Z,96250.75
2024-01-08T02:04:54.633Z,96250.98
2024-01-08T02:07:22.650Z,96251.53
2024-01-08T02:09:52.345Z,96252.08
2024-01-08T02:12:21.030Z,96258.17
2024-01-08T02:14:49.077Z,96258.13
2024-01-08T02:17:18.014Z,96260.55
2024-01-08T02:19:45.919Z,96264.03
2024-01-08T02:22:13.908Z,96258.72
2024-01-08T02:24:42.900Z,96257.16
2024-01-08T02:27:11.472Z,96259.55
2024-01-08T02:29:39.619Z,96265.41
2024-01-08T02:32:09.095Z,96270.79
2024-01-08T02:34:39.082Z,96272.40
2024-01-08T02:37:07.382Z,96270.34
2024-01-08T02:39:37.816Z,96271.90
2024-01-08T02:42:06.435Z,96275.17
2024-01-08T02:44:34.612Z,96275.27
2024-01-08T02:47:04.174Z,96277.97
2024-01-08T02:49:32.049Z,96282.27
2024-01-08T02:52:00.007Z,96283.35
2024-01-08T02:54:27.951Z,96281.25
2024-01-08T02:56:56.086Z,96289.25
2024-01-08T02:59:23.968Z,96282.12
2024-01-08T03:01:52.448Z,96288.20
2024-01-08T03:04:20.343Z,96293.33
2024-01-08T03:06:48.398Z,96292.81
2024-01-08T03:09:16.316Z,96296.28
2024-01-08T03:11:44.177Z,96296.52
2024-01-08T03:14:12.019Z,96291.52
2024-01-08T03:16:39.983Z,96294.96
2024-01-08T03:19:07.980Z,96296.59
2024-01-08T03:21:35.884Z,96296.87
2024-01-08T03:24:04.175Z,96299.84
2024-01-08T03:26:32.118Z,96305.66
2024-01-08T03:29:00.330Z,96304.64
2024-01-08T03:31:28.629Z,96303.01
2024-01-08T03:33:56.824Z,96306.47
2024-01-08T03:36:25.038Z,96312.80
2024-01-08T03:38:52.955Z,96315.45
2024-01-08T03:41:21.077Z,96318.09
2024-01-08T03:43:49.123Z,96313.34
2024-01-08T03:46:17.036Z,96325.52
2024-01-08T03:48:45.008Z,96328.43
2024-01-08T03:51:13.097Z,96333.73
2024-01-08T03:53:41.152Z,96329.76
2024-01-08T03:56:09.078Z,96332.14
2024-01-08T03:58:38.192Z,96333.73
2024-01-08T04:01:06.405Z,96338.19
2024-01-08T04:03:34.883Z,96338.19
2024-01-08T04:06:03.041Z,96333.13
2024-01-08T04:08:31.205Z,96336.04
2024-01-08T04:10:59.370Z,96339.23
2024-01-08T04:13:27.325Z,96343.22
2024-01-08T04:15:55.158Z,96342.72
2024-01-08T04:18:23.073Z,96348.02
2024-01-08T04:20:51.006Z,96348.56
2024-01-08T04:23:19.159Z,96354.66
2024-01-08T04:25:47.073Z,96350.13
2024-01-08T04:28:15.079Z,96351.69
2024-01-08T04:30:43.158Z,96358.33
2024-01-08T04:33:10.974Z,96362.30
2024-01-08T04:35:38.828Z,96364.17
2024-01-08T04:38:07.138Z,96372.09
2024-01-08T04:40:35.004Z,96368.89
2024-01-08T04:43:03.287Z,96379.47
2024-01-08T04:45:31.589Z,96379.47
2024-01-08T04:48:00.468Z,96380.25
2024-01-08T04:50:28.593Z,96384.47
2024-01-08T04:52:56.712Z,96385.52
2024-01-08T04:55:24.871Z,96392.19
2024-01-08T04:57:52.679Z,96390.67
2024-01-08T05:00:20.641Z,96393.36
2024-01-08T05:02:48.749Z,96398.73
2024-01-08T05:05:17.429Z,96402.76
2024-01-08T05:07:45.566Z,96407.87
2024-01-08T05:10:13.565Z,96408.14
2024-01-08T05:12:41.551Z,96410.05
2024-01-08T05:15:10.035Z,96409.03
2024-01-08T05:17:38.109Z,96415.16
2024-01-08T05:20:07.807Z,96414.68
2024-01-08T05:22:35.848Z,96422.67
2024-01-08T05:25:03.950Z,96418.22
2024-01-08T05:27:32.005Z,96424.11
2024-01-08T05:30:00.008Z,96426.25
2024-01-08T05:32:28.150Z,96425.44
2024-01-08T05:34:56.637Z,96432.09
2024-01-08T05:37:24.664Z,96427.61
2024-01-08T05:39:52.604Z,96431.11
2024-01-08T05:42:20.743Z,96442.27
2024-01-08T05:44:48.931Z,96444.41
2024-01-08T05:47:16.847Z,96442.78
2024-01-08T05:49:44.803Z,96448.08
2024-01-08T05:52:12.961Z,96453.93
2024-01-08T05:54:40.801Z,96456.30
2024-01-08T05:57:08.879Z,96460.02
2024-01-08T05:59:38.850Z,96465.08
2024-01-08T06:02:06.466Z,96467.73
2024-01-08T06:04:34.493Z,96466.95
2024-01-08T06:07:02.342Z,96475.20
2024-01-08T06:09:30.119Z,96476.84
2024-01-08T06:11:59.226Z,96480.33
2024-01-08T06:16:55.015Z,96492.84
2024-01-08T06:19:22.874Z,96492.39
2024-01-08T06:21:50.853Z,96492.94
2024-01-08T06:24:18.754Z,96496.94
2024-01-08T06:26:46.642Z,96499.59
2024-01-08T06:29:14.550Z,96508.33
2024-01-08T06:31:42.687Z,96510.47
2024-01-08T06:34:10.897Z,96504.69
2024-01-08T06:36:41.575Z,96509.47
2024-01-08T06:39:12.714Z,96517.16
2024-01-08T06:41:40.666Z,96519.05
2024-01-08T06:44:08.558Z,96518.78
2024-01-08T06:46:36.572Z,96526.73
2024-01-08T06:49:04.399Z,96530.22
2024-01-08T06:51:35.851Z,96528.90
2024-01-08T06:54:04.462Z,96530.22
2024-01-08T06:56:32.596Z,96536.83
2024-01-08T06:59:04.622Z,96537.88
2024-01-08T07:01:32.641Z,96543.72
2024-01-08T07:04:00.579Z,96540.05
2024-01-08T07:06:28.725Z,96547.00
2024-01-08T07:08:56.683Z,96552.33
2024-01-08T07:11:25.769Z,96557.38
2024-01-08T07:13:54.093Z,96564.25
2024-01-08T07:16:22.013Z,96571.44
2024-01-08T07:18:50.175Z,96577.61
2024-01-08T07:21:19.329Z,96574.42
2024-01-08T07:23:48.832Z,96581.80
2024-01-08T07:26:17.313Z,96580.96
2024-01-08T07:28:46.471Z,96587.80
2024-01-08T07:31:16.201Z,96583.02
2024-01-08T07:33:44.515Z,96592.48
2024-01-08T07:36:14.244Z,96593.22
2024-01-08T07:38:42.248Z,96603.23
2024-01-08T07:41:10.350Z,96604.23
2024-01-08T07:43:39.931Z,96607.30
2024-01-08T07:46:08.411Z,96606.41
2024-01-08T07:48:36.505Z,96605.56
2024-01-08T07:51:05.158Z,96608.70
2024-01-08T07:53:33.026Z,96608.38
2024-01-08T07:56:01.041Z,96611.72
2024-01-08T07:58:36.166Z,96614.25
2024-01-08T08:01:00.421Z,96618.98
2024-01-08T08:03:28.533Z,96619.17
2024-01-08T08:05:58.906Z,96623.80
2024-01-08T08:08:27.419Z,96622.89
2024-01-08T08:11:05.359Z,96630.02
2024-01-08T08:13:39.135Z,96639.03
2024-01-08T08:16:29.506Z,96644.55
2024-01-08T08:18:57.980Z,96642.44
2024-01-08T08:21:26.382Z,96648.22
2024-01-08T08:23:58.446Z,96655.67
2024-01-08T08:26:26.628Z,96650.03
2024-01-08T08:28:54.648Z,96654.46
2024-01-08T08:31:22.512Z,96662.63
2024-01-08T08:33:53.096Z,96663.92
2024-01-08T08:36:20.291Z,96666.24
2024-01-08T08:38:48.380Z,96676.53
2024-01-08T08:41:18.620Z,96681.23
2024-01-08T08:43:48.803Z,96685.15
2024-01-08T08:46:24.059Z,96689.34
2024-01-08T08:48:51.738Z,96685.56
2024-01-08T08:51:21.540Z,96687.40
2024-01-08T08:53:49.460Z,96691.89
2024-01-08T08:56:17.856Z,96696.11
2024-01-08T08:58:47.921Z,96691.79
2024-01-08T09:01:15.971Z,96703.16
2024-01-08T09:03:44.146Z,96698.30
2024-01-08T09:06:12.747Z,96705.07
2024-01-08T09:08:45.558Z,96704.62
2024-01-08T09:11:13.850Z,96701.50
2024-01-08T09:13:42.052Z,96703.91
2024-01-08T09:16:14.806Z,96699.49
2024-01-08T09:18:44.008Z,96696.33
2024-01-08T09:21:15.994Z,96697.96
2024-01-08T09:23:44.310Z,96701.79
2024-01-08T09:26:13.934Z,96701.16
2024-01-08T09:28:41.908Z,96703.89
2024-01-08T09:31:11.751Z,96704.27
2024-01-08T09:33:42.525Z,96708.95
2024-01-08T09:39:05.168Z,96707.62
2024-01-08T09:41:45.464Z,96704.28
2024-01-08T09:44:16.857Z,96711.13
2024-01-08T09:46:52.854Z,96709.20
2024-01-08T09:49:21.587Z,96716.55
2024-01-08T09:51:49.707Z,96712.23
2024-01-08T09:56:59.119Z,96708.80
2024-01-08T09:59:29.332Z,96716.73
2024-01-08T10:01:58.307Z,96713.39
2024-01-08T10:04:26.999Z,96722.38
2024-01-08T10:07:11.730Z,96717.05
2024-01-08T10:09:42.235Z,96718.03
2024-01-08T10:12:11.088Z,96716.43
2024-01-08T10:14:48.039Z,96715.09
2024-01-08T10:17:25.623Z,96714.27
2024-01-08T10:20:07.444Z,96714.50
2024-01-08T10:22:35.666Z,96712.62
2024-01-08T10:25:04.384Z,96704.16
2024-01-08T10:27:32.526Z,96707.97
2024-01-08T10:30:00.631Z,96708.80
2024-01-08T10:32:28.826Z,96707.78
2024-01-08T10:34:57.199Z,96716.02
2024-01-08T10:37:29.010Z,96718.98
2024-01-08T10:39:59.995Z,96720.05
2024-01-08T10:42:28.121Z,96719.58
2024-01-08T10:44:55.892Z,96720.73
2024-01-08T10:47:29.408Z,96725.86
2024-01-08T10:50:01.445Z,96725.08
2024-01-08T10:52:35.309Z,96729.95
2024-01-08T10:55:06.067Z,96729.84
2024-01-08T10:58:04.124Z,96734.89
2024-01-08T11:00:35.051Z,96734.66
2024-01-08T11:03:03.653Z,96741.86
2024-01-08T11:05:37.915Z,96743.66
2024-01-08T11:08:09.610Z,96743.39
2024-01-08T11:10:38.390Z,96746.41
2024-01-08T11:13:06.282Z,96742.69
2024-01-08T11:15:34.086Z,96749.42
2024-01-08T11:18:03.982Z,96752.32
2024-01-08T11:20:45.498Z,96751.27
2024-01-08T11:23:41.455Z,96756.59
2024-01-08T11:26:23.200Z,96762.18
2024-01-08T11:29:06.714Z,96759.52
2024-01-08T11:31:42.813Z,96760.85
2024-01-08T11:34:42.066Z,96766.41
2024-01-08T11:37:20.985Z,96767.23
2024-01-08T11:39:50.714Z,96764.06
2024-01-08T11:42:20.703Z,96767.05
2024-01-08T11:44:49.740Z,96765.79
2024-01-08T11:47:18.647Z,96762.86
2024-01-08T11:49:46.909Z,96767.98
2024-01-08T11:52:16.273Z,96773.58
2024-01-08T11:54:46.086Z,96775.97
2024-01-08T11:57:14.281Z,96780.51
2024-01-08T11:59:42.100Z,96775.97
2024-01-08T12:02:18.390Z,96785.05
2024-01-08T12:04:59.021Z,96783.22
2024-01-08T12:07:31.014Z,96781.95
2024-01-08T12:10:06.781Z,96787.83
2024-01-08T12:12:40.333Z,96793.23
2024-01-08T12:15:09.505Z,96793.03
2024-01-08T12:17:41.424Z,96795.49
2024-01-08T12:20:12.069Z,96794.75
2024-01-08T12:22:40.082Z,96805.16
2024-01-08T12:25:11.085Z,96804.09
2024-01-08T12:27:41.405Z,96809.72
2024-01-08T12:30:10.610Z,96809.83
2024-01-08T12:32:39.132Z,96814.68
2024-01-08T12:35:16.202Z,96818.73
2024-01-08T12:37:44.328Z,96823.85
2024-01-08T12:40:13.754Z,96821.50
2024-01-08T12:42:45.849Z,96827.95
2024-01-08T12:45:13.848Z,96828.25
2024-01-08T12:47:47.960Z,96830.95
2024-01-08T12:50:16.503Z,96830.20
2024-01-08T12:52:47.382Z,96834.77
2024-01-08T12:55:15.822Z,96833.50
2024-01-08T12:57:45.502Z,96833.02
2024-01-08T13:00:14.425Z,96836.80
2024-01-08T13:02:42.441Z,96839.77
2024-01-08T13:05:14.355Z,96845.66
2024-01-08T13:07:40.338Z,96848.34
2024-01-08T13:10:08.624Z,96852.64
2024-01-08T13:12:38.365Z,96859.05
2024-01-08T13:15:07.516Z,96859.05
2024-01-08T13:17:35.704Z,96868.86
2024-01-08T13:20:18.803Z,96858.53
2024-01-08T13:22:40.490Z,96864.66
2024-01-08T13:25:10.601Z,96870.28
2024-01-08T13:27:38.434Z,96874.30
2024-01-08T13:30:08.300Z,96878.34
2024-01-08T13:32:37.171Z,96882.05
2024-01-08T13:35:11.884Z,96885.55
2024-01-08T13:37:38.678Z,96891.14
2024-01-08T13:40:08.171Z,96891.71
2024-01-08T13:42:38.521Z,96896.23
2024-01-08T13:45:09.410Z,96899.98
2024-01-08T13:47:37.967Z,96899.73
2024-01-08T13:50:07.965Z,96902.12
2024-01-08T13:52:36.539Z,96914.35
2024-01-08T13:55:05.990Z,96914.86
2024-01-08T13:57:33.808Z,96920.45
2024-01-08T14:00:04.664Z,96917.82
2024-01-08T14:02:36.397Z,96924.77
2024-01-08T14:05:04.816Z,96931.97
2024-01-08T14:07:33.055Z,96936.53
2024-01-08T14:10:00.952Z,96937.63
2024-01-08T14:12:28.960Z,96949.61
2024-01-08T14:14:57.358Z,96945.41
2024-01-08T14:17:25.328Z,96952.07
2024-01-08T14:19:53.239Z,96959.25
2024-01-08T14:22:21.429Z,96955.59
2024-01-08T14:24:50.545Z,96956.69
2024-01-08T14:27:18.550Z,96961.70
2024-01-08T14:29:48.318Z,96960.97
2024-01-08T14:32:18.288Z,96971.86
2024-01-08T14:34:45.756Z,96969.50
2024-01-08T14:37:14.145Z,96972.95
2024-01-08T14:39:42.477Z,96968.72
2024-01-08T14:42:10.952Z,96978.28
2024-01-08T14:44:39.063Z,96979.11
2024-01-08T14:47:07.260Z,96982.82
2024-01-08T14:49:35.268Z,96980.73
2024-01-08T14:52:04.227Z,96986.58
2024-01-08T14:54:32.169Z,96991.94
2024-01-08T14:57:01.847Z,96991.66
2024-01-08T14:59:29.764Z,96994.61
2024-01-08T15:02:00.117Z,97000.73
2024-01-08T15:04:27.965Z,97001.52
2024-01-08T15:07:00.627Z,97002.37
2024-01-08T15:09:28.801Z,97012.73
2024-01-08T15:11:58.606Z,97014.63
2024-01-08T15:14:26.855Z,97018.87
2024-01-08T15:17:02.619Z,97018.38
2024-01-08T15:19:31.784Z,97029.80
2024-01-08T15:22:08.702Z,97031.41
2024-01-08T15:24:37.738Z,97029.84
2024-01-08T15:27:06.393Z,97036.73
2024-01-08T15:29:34.651Z,97039.95
2024-01-08T15:32:05.207Z,97045.00
2024-01-08T15:34:36.965Z,97046.09
2024-01-08T15:37:07.709Z,97052.48
2024-01-08T15:39:35.938Z,97058.84
2024-01-08T15:45:29.890Z,97061.54
2024-01-08T15:47:58.007Z,97072.95
2024-01-08T15:50:26.746Z,97073.49
2024-01-08T15:52:58.182Z,97077.73
2024-01-08T15:55:26.225Z,97085.20
2024-01-08T15:57:56.202Z,97089.19
2024-01-08T16:00:24.829Z,97097.16
2024-01-08T16:02:54.577Z,97095.58
2024-01-08T16:05:31.846Z,97096.66
2024-01-08T16:08:03.815Z,97103.30
2024-01-08T16:10:37.103Z,97107.83
2024-01-08T16:13:04.965Z,97110.77
2024-01-08T16:15:33.525Z,97115.83
2024-01-08T16:18:01.547Z,97126.16
2024-01-08T16:20:34.380Z,97127.23
2024-01-08T16:23:05.324Z,97131.46
2024-01-08T16:32:10.865Z,97140.50
2024-01-08T16:34:45.945Z,97149.78
2024-01-08T16:37:13.705Z,97148.73
2024-01-08T16:40:04.701Z,97157.20
2024-01-08T16:42:33.636Z,97163.59
2024-01-08T16:45:09.280Z,97162.02
2024-01-08T16:47:48.609Z,97170.77
2024-01-08T16:50:12.846Z,97164.17
2024-01-08T16:52:41.482Z,97168.41
2024-01-08T16:55:10.063Z,97180.59
2024-01-08T16:57:39.749Z,97190.94
2024-01-08T17:00:11.301Z,97191.48
2024-01-08T17:02:41.547Z,97201.88
2024-01-08T17:05:17.188Z,97201.63
2024-01-08T17:07:45.115Z,97207.19
2024-01-08T17:10:15.794Z,97213.03
2024-01-08T17:12:43.947Z,97211.45
2024-01-08T17:15:12.932Z,97214.89
2024-01-08T17:17:42.101Z,97217.29
2024-01-08T17:20:13.853Z,97220.52
2024-01-08T17:22:42.017Z,97228.46
2024-01-08T17:25:10.050Z,97222.38
2024-01-08T17:27:38.116Z,97229.79
2024-01-08T17:30:09.154Z,97237.20
2024-01-08T17:32:38.943Z,97231.11
2024-01-08T17:35:08.769Z,97234.84
2024-01-08T17:37:36.754Z,97236.41
2024-01-08T17:40:06.340Z,97244.91
2024-01-08T17:42:36.246Z,97248.59
2024-01-08T17:45:05.772Z,97252.32
2024-01-08T17:47:37.167Z,97255.76
2024-01-08T17:50:07.460Z,97261.31
2024-01-08T17:52:35.530Z,97253.65
2024-01-08T17:55:04.232Z,97256.30
2024-01-08T17:57:33.115Z,97261.86
2024-01-08T18:00:05.390Z,97266.09
2024-01-08T18:02:36.401Z,97270.31
2024-01-08T18:05:05.796Z,97273.78
2024-01-08T18:07:34.047Z,97281.73
2024-01-08T18:10:01.994Z,97280.13
2024-01-08T18:12:30.286Z,97285.44
2024-01-08T18:14:58.673Z,97291.27
2024-01-08T18:17:26.946Z,97291.27
2024-01-08T18:19:54.845Z,97292.59
2024-01-08T18:22:22.890Z,97297.92
2024-01-08T18:24:50.871Z,97304.02
2024-01-08T18:27:18.821Z,97306.41
2024-01-08T18:29:47.250Z,97305.89
2024-01-08T18:32:15.953Z,97321.53
2024-01-08T18:34:45.327Z,97336.36
2024-01-08T18:37:13.266Z,97335.30
2024-01-08T18:39:41.891Z,97336.89
2024-01-08T18:42:13.008Z,97342.73
2024-01-08T18:44:42.346Z,97352.00
2024-01-08T18:47:10.466Z,97348.02
2024-01-08T18:49:48.256Z,97362.87
2024-01-08T18:52:16.210Z,97359.95
2024-01-08T18:54:44.151Z,97361.29
2024-01-08T18:57:12.446Z,97362.86
2024-01-08T18:59:41.577Z,97363.92
2024-01-08T19:02:10.321Z,97371.33
2024-01-08T19:04:38.817Z,97377.67
2024-01-08T19:07:07.388Z,97384.83
2024-01-08T19:09:36.916Z,97382.45
2024-01-08T19:12:07.737Z,97382.45
2024-01-08T19:14:35.769Z,97392.25
2024-01-08T19:17:04.129Z,97389.59
2024-01-08T19:19:33.994Z,97387.45
2024-01-08T19:22:05.021Z,97390.62
2024-01-08T19:24:34.939Z,97395.92
2024-01-08T19:27:06.034Z,97398.55
2024-01-08T19:29:34.242Z,97393.80
2024-01-08T19:32:02.718Z,97399.88
2024-01-08T19:34:30.598Z,97416.01
2024-01-08T19:36:59.036Z,97420.25
2024-01-08T19:39:27.491Z,97420.53
2024-01-08T19:41:59.125Z,97425.82
2024-01-08T19:44:27.153Z,97426.59
2024-01-08T19:46:56.890Z,97431.89
2024-01-08T19:49:31.054Z,97441.16
2024-01-08T19:51:58.214Z,97434.54
2024-01-08T19:54:27.186Z,97452.80
2024-01-08T19:56:55.353Z,97459.44
2024-01-08T19:59:24.730Z,97451.23
2024-01-08T20:01:52.709Z,97457.32
2024-01-08T20:04:22.635Z,97457.32
2024-01-08T20:06:52.574Z,97459.97
2024-01-08T20:09:22.556Z,97472.67
2024-01-08T20:11:51.520Z,97474.78
2024-01-08T20:14:19.814Z,97471.88
2024-01-08T20:16:49.411Z,97474.50
2024-01-08T20:19:17.563Z,97480.33
2024-01-08T20:21:46.470Z,97485.35
2024-01-08T20:24:16.355Z,97491.71
2024-01-08T20:26:46.212Z,97489.59
2024-01-08T20:29:14.685Z,97492.24
2024-01-08T20:31:42.864Z,97498.33
2024-01-08T20:34:12.801Z,97502.83
2024-01-08T20:36:41.392Z,97498.34
2024-01-08T20:39:12.890Z,97502.83
2024-01-08T20:41:41.151Z,97511.84
2024-01-08T20:44:09.181Z,97528.02
2024-01-08T20:46:37.482Z,97530.69
2024-01-08T20:49:05.662Z,97531.48
2024-01-08T20:51:34.422Z,97538.36
2024-01-08T20:54:03.941Z,97539.15
2024-01-08T20:56:32.025Z,97547.63
2024-01-08T20:59:01.502Z,97548.95
2024-01-08T21:01:29.513Z,97544.72
2024-01-08T21:03:57.983Z,97550.27
2024-01-08T21:06:26.493Z,97555.30
2024-01-08T21:08:54.721Z,97560.89
2024-01-08T21:11:23.007Z,97561.41
2024-01-08T21:13:53.030Z,97569.36
2024-01-08T21:16:21.229Z,97565.41
2024-01-08T21:18:50.813Z,97576.25
2024-01-08T21:21:18.786Z,97579.20
2024-01-08T21:23:49.686Z,97590.31
2024-01-08T21:26:18.403Z,97581.59
2024-01-08T21:28:46.562Z,97596.19
2024-01-08T21:31:15.176Z,97598.03
2024-01-08T21:33:43.281Z,97609.16
2024-01-08T21:36:14.359Z,97610.21
2024-01-08T21:38:41.876Z,97615.27
2024-01-08T21:41:11.633Z,97618.18
2024-01-08T21:43:39.594Z,97619.50
2024-01-08T21:46:07.581Z,97622.17
2024-01-08T21:48:35.791Z,97632.23
2024-01-08T21:51:04.648Z,97636.48
2024-01-08T21:53:32.694Z,97642.05
2024-01-08T21:56:00.695Z,97647.58
2024-01-08T21:58:28.729Z,97652.88
2024-01-08T22:00:56.946Z,97650.77
2024-01-08T22:03:25.225Z,97658.18
2024-01-08T22:05:53.411Z,97662.66
2024-01-08T22:08:23.120Z,97660.02
2024-01-08T22:10:50.985Z,97662.40
2024-01-08T22:13:19.002Z,97667.95
2024-01-08T22:15:49.001Z,97672.45
2024-01-08T22:18:17.599Z,97676.97
2024-01-08T22:20:46.085Z,97676.41
2024-01-08T22:23:14.411Z,97671.64
2024-01-08T22:25:42.599Z,97667.64
2024-01-08T22:28:10.662Z,97676.63
2024-01-08T22:30:41.185Z,97679.25
2024-01-08T22:33:09.400Z,97686.40
2024-01-08T22:35:37.768Z,97687.20
2024-01-08T22:38:07.929Z,97692.99
2024-01-08T22:40:37.600Z,97694.34
2024-01-08T22:43:05.826Z,97698.08
2024-01-08T22:45:34.101Z,97704.17
2024-01-08T22:48:21.712Z,97705.23
2024-01-08T22:50:50.071Z,97710.79
2024-01-08T22:53:20.349Z,97713.97
2024-01-08T22:55:50.170Z,97706.81
2024-01-08T23:01:14.394Z,97721.06
2024-01-08T23:03:46.973Z,97722.13
2024-01-08T23:06:14.785Z,97721.06
2024-01-08T23:08:43.869Z,97733.51
2024-01-08T23:11:11.778Z,97732.95
2024-01-08T23:13:39.688Z,97739.59
2024-01-08T23:16:07.891Z,97735.09
2024-01-08T23:18:35.841Z,97738.01
2024-01-08T23:21:04.137Z,97740.16
2024-01-08T23:23:33.351Z,97748.89
2024-01-08T23:26:03.261Z,97745.45
2024-01-08T23:28:31.195Z,97758.13
2024-01-08T23:30:59.302Z,97758.13
2024-01-08T23:33:27.973Z,97762.63
2024-01-08T23:35:56.462Z,97769.78
2024-01-08T23:38:26.134Z,97769.78
2024-01-08T23:40:53.941Z,97772.93
2024-01-08T23:43:21.925Z,97774.75
2024-01-08T23:45:49.953Z,97778.95
2024-01-08T23:48:17.887Z,97788.16
2024-01-08T23:50:46.000Z,97781.47
2024-01-08T23:53:14.180Z,97787.03
2024-01-08T23:55:42.185Z,97792.55
2024-01-08T23:58:10.408Z,97788.78
